sensor_id;sensor_type;location;lat;lon;timestamp;P1;durP1;ratioP1;P2;durP2;ratioP2
29402;SDS011;16382;59.942;30.472;2023-04-16T00:01:11;3.63;;;2.15;;
29402;SDS011;16382;59.942;30.472;2023-04-16T00:03:39;2.60;;;2.40;;
29402;SDS011;16382;59.942;30.472;2023-04-16T00:06:06;6.35;;;2.05;;
29402;SDS011;16382;59.942;30.472;2023-04-16T00:08:36;4.03;;;2.60;;
29402;SDS011;16382;59.942;30.472;2023-04-16T00:11:05;4.95;;;2.55;;
29402;SDS011;16382;59.942;30.472;2023-04-16T00:13:33;9.80;;;2.80;;
29402;SDS011;16382;59.942;30.472;2023-04-16T00:16:01;6.03;;;1.92;;
29402;SDS011;16382;59.942;30.472;2023-04-16T00:18:28;5.88;;;2.67;;
29402;SDS011;16382;59.942;30.472;2023-04-16T00:20:56;4.90;;;2.03;;
29402;SDS011;16382;59.942;30.472;2023-04-16T00:23:24;5.00;;;2.92;;
29402;SDS011;16382;59.942;30.472;2023-04-16T00:25:51;3.50;;;2.22;;
29402;SDS011;16382;59.942;30.472;2023-04-16T00:28:23;4.35;;;2.67;;
29402;SDS011;16382;59.942;30.472;2023-04-16T00:30:50;7.03;;;2.15;;
29402;SDS011;16382;59.942;30.472;2023-04-16T00:33:17;3.88;;;2.42;;
29402;SDS011;16382;59.942;30.472;2023-04-16T00:35:45;8.77;;;2.17;;
29402;SDS011;16382;59.942;30.472;2023-04-16T00:38:13;5.18;;;2.70;;
29402;SDS011;16382;59.942;30.472;2023-04-16T00:40:41;5.38;;;2.15;;
29402;SDS011;16382;59.942;30.472;2023-04-16T00:43:08;6.80;;;2.30;;
29402;SDS011;16382;59.942;30.472;2023-04-16T00:45:38;4.38;;;2.33;;
29402;SDS011;16382;59.942;30.472;2023-04-16T00:48:06;4.68;;;2.90;;
29402;SDS011;16382;59.942;30.472;2023-04-16T00:50:33;5.32;;;2.50;;
29402;SDS011;16382;59.942;30.472;2023-04-16T00:53:01;4.90;;;2.72;;
29402;SDS011;16382;59.942;30.472;2023-04-16T00:55:28;3.47;;;2.40;;
29402;SDS011;16382;59.942;30.472;2023-04-16T00:57:56;4.13;;;2.88;;
29402;SDS011;16382;59.942;30.472;2023-04-16T01:00:24;16.25;;;2.90;;
29402;SDS011;16382;59.942;30.472;2023-04-16T01:02:53;2.97;;;2.40;;
29402;SDS011;16382;59.942;30.472;2023-04-16T01:05:21;3.58;;;1.85;;
29402;SDS011;16382;59.942;30.472;2023-04-16T01:07:49;2.28;;;2.03;;
29402;SDS011;16382;59.942;30.472;2023-04-16T01:10:16;6.80;;;2.70;;
29402;SDS011;16382;59.942;30.472;2023-04-16T01:12:45;3.95;;;2.72;;
29402;SDS011;16382;59.942;30.472;2023-04-16T01:15:12;4.40;;;3.20;;
29402;SDS011;16382;59.942;30.472;2023-04-16T01:17:40;5.35;;;2.13;;
29402;SDS011;16382;59.942;30.472;2023-04-16T01:20:09;2.60;;;2.05;;
29402;SDS011;16382;59.942;30.472;2023-04-16T01:22:38;3.97;;;2.17;;
29402;SDS011;16382;59.942;30.472;2023-04-16T01:25:05;3.78;;;2.25;;
29402;SDS011;16382;59.942;30.472;2023-04-16T01:27:33;7.00;;;2.83;;
29402;SDS011;16382;59.942;30.472;2023-04-16T01:30:01;6.05;;;2.05;;
29402;SDS011;16382;59.942;30.472;2023-04-16T01:32:41;2.45;;;2.25;;
29402;SDS011;16382;59.942;30.472;2023-04-16T01:35:09;4.32;;;2.15;;
29402;SDS011;16382;59.942;30.472;2023-04-16T01:37:38;4.07;;;2.40;;
29402;SDS011;16382;59.942;30.472;2023-04-16T01:40:06;6.68;;;2.08;;
29402;SDS011;16382;59.942;30.472;2023-04-16T01:42:34;4.07;;;2.65;;
29402;SDS011;16382;59.942;30.472;2023-04-16T01:45:04;3.15;;;1.88;;
29402;SDS011;16382;59.942;30.472;2023-04-16T01:47:32;7.05;;;2.20;;
29402;SDS011;16382;59.942;30.472;2023-04-16T01:50:00;3.55;;;1.80;;
29402;SDS011;16382;59.942;30.472;2023-04-16T01:52:29;2.42;;;1.90;;
29402;SDS011;16382;59.942;30.472;2023-04-16T01:54:58;2.25;;;1.75;;
29402;SDS011;16382;59.942;30.472;2023-04-16T01:57:25;6.80;;;2.75;;
29402;SDS011;16382;59.942;30.472;2023-04-16T01:59:53;3.08;;;2.10;;
29402;SDS011;16382;59.942;30.472;2023-04-16T02:02:21;3.38;;;1.98;;
29402;SDS011;16382;59.942;30.472;2023-04-16T02:04:53;5.35;;;2.10;;
29402;SDS011;16382;59.942;30.472;2023-04-16T02:07:24;2.20;;;2.00;;
29402;SDS011;16382;59.942;30.472;2023-04-16T02:09:52;5.07;;;2.30;;
29402;SDS011;16382;59.942;30.472;2023-04-16T02:12:21;5.05;;;2.22;;
29402;SDS011;16382;59.942;30.472;2023-04-16T02:14:48;6.93;;;2.03;;
29402;SDS011;16382;59.942;30.472;2023-04-16T02:17:17;3.17;;;2.17;;
29402;SDS011;16382;59.942;30.472;2023-04-16T02:19:48;3.22;;;2.00;;
29402;SDS011;16382;59.942;30.472;2023-04-16T02:22:16;3.08;;;2.35;;
29402;SDS011;16382;59.942;30.472;2023-04-16T02:24:43;3.40;;;2.15;;
29402;SDS011;16382;59.942;30.472;2023-04-16T02:27:11;7.93;;;2.28;;
29402;SDS011;16382;59.942;30.472;2023-04-16T02:29:43;4.65;;;2.22;;
29402;SDS011;16382;59.942;30.472;2023-04-16T02:32:15;4.45;;;2.00;;
29402;SDS011;16382;59.942;30.472;2023-04-16T02:34:45;11.10;;;2.53;;
29402;SDS011;16382;59.942;30.472;2023-04-16T02:37:13;4.55;;;2.25;;
29402;SDS011;16382;59.942;30.472;2023-04-16T02:39:41;3.22;;;2.25;;
29402;SDS011;16382;59.942;30.472;2023-04-16T02:42:09;3.58;;;2.20;;
29402;SDS011;16382;59.942;30.472;2023-04-16T02:44:37;7.68;;;2.67;;
29402;SDS011;16382;59.942;30.472;2023-04-16T02:47:06;7.95;;;2.63;;
29402;SDS011;16382;59.942;30.472;2023-04-16T02:49:33;3.40;;;2.00;;
29402;SDS011;16382;59.942;30.472;2023-04-16T02:52:01;3.13;;;2.28;;
29402;SDS011;16382;59.942;30.472;2023-04-16T02:54:28;3.33;;;2.38;;
29402;SDS011;16382;59.942;30.472;2023-04-16T02:56:56;11.57;;;2.80;;
29402;SDS011;16382;59.942;30.472;2023-04-16T02:59:23;6.57;;;3.05;;
29402;SDS011;16382;59.942;30.472;2023-04-16T03:01:51;4.72;;;3.00;;
29402;SDS011;16382;59.942;30.472;2023-04-16T03:04:20;5.20;;;2.60;;
29402;SDS011;16382;59.942;30.472;2023-04-16T03:06:47;5.85;;;2.88;;
29402;SDS011;16382;59.942;30.472;2023-04-16T03:09:14;3.88;;;2.65;;
29402;SDS011;16382;59.942;30.472;2023-04-16T03:11:43;2.97;;;2.53;;
29402;SDS011;16382;59.942;30.472;2023-04-16T03:14:10;5.00;;;2.75;;
29402;SDS011;16382;59.942;30.472;2023-04-16T03:16:38;6.95;;;2.58;;
29402;SDS011;16382;59.942;30.472;2023-04-16T03:19:05;6.40;;;2.63;;
29402;SDS011;16382;59.942;30.472;2023-04-16T03:21:36;6.97;;;3.05;;
29402;SDS011;16382;59.942;30.472;2023-04-16T03:24:04;4.32;;;2.25;;
29402;SDS011;16382;59.942;30.472;2023-04-16T03:26:32;2.35;;;2.17;;
29402;SDS011;16382;59.942;30.472;2023-04-16T03:29:00;9.70;;;2.92;;
29402;SDS011;16382;59.942;30.472;2023-04-16T03:31:30;2.95;;;2.33;;
29402;SDS011;16382;59.942;30.472;2023-04-16T03:33:58;4.25;;;2.28;;
29402;SDS011;16382;59.942;30.472;2023-04-16T03:36:25;5.30;;;2.28;;
29402;SDS011;16382;59.942;30.472;2023-04-16T03:38:55;4.45;;;2.50;;
29402;SDS011;16382;59.942;30.472;2023-04-16T03:41:22;6.63;;;2.38;;
29402;SDS011;16382;59.942;30.472;2023-04-16T03:43:50;24.10;;;13.68;;
29402;SDS011;16382;59.942;30.472;2023-04-16T03:46:17;5.53;;;3.90;;
29402;SDS011;16382;59.942;30.472;2023-04-16T03:48:45;6.07;;;2.35;;
29402;SDS011;16382;59.942;30.472;2023-04-16T03:51:12;3.22;;;2.33;;
29402;SDS011;16382;59.942;30.472;2023-04-16T03:53:40;5.50;;;2.15;;
29402;SDS011;16382;59.942;30.472;2023-04-16T03:56:09;5.47;;;2.15;;
29402;SDS011;16382;59.942;30.472;2023-04-16T03:58:37;4.95;;;2.50;;
29402;SDS011;16382;59.942;30.472;2023-04-16T04:01:04;3.30;;;2.40;;
29402;SDS011;16382;59.942;30.472;2023-04-16T04:03:31;6.70;;;2.30;;
29402;SDS011;16382;59.942;30.472;2023-04-16T04:06:00;5.28;;;2.10;;
29402;SDS011;16382;59.942;30.472;2023-04-16T04:08:32;5.87;;;2.37;;
29402;SDS011;16382;59.942;30.472;2023-04-16T04:11:02;3.10;;;2.10;;
29402;SDS011;16382;59.942;30.472;2023-04-16T04:13:33;5.13;;;2.40;;
29402;SDS011;16382;59.942;30.472;2023-04-16T04:16:02;2.17;;;1.98;;
29402;SDS011;16382;59.942;30.472;2023-04-16T04:18:31;4.70;;;1.88;;
29402;SDS011;16382;59.942;30.472;2023-04-16T04:20:58;4.28;;;2.53;;
29402;SDS011;16382;59.942;30.472;2023-04-16T04:23:31;6.30;;;3.08;;
29402;SDS011;16382;59.942;30.472;2023-04-16T04:25:59;4.95;;;2.55;;
29402;SDS011;16382;59.942;30.472;2023-04-16T04:28:28;6.05;;;2.40;;
29402;SDS011;16382;59.942;30.472;2023-04-16T04:30:58;6.18;;;2.30;;
29402;SDS011;16382;59.942;30.472;2023-04-16T04:33:29;8.98;;;2.47;;
29402;SDS011;16382;59.942;30.472;2023-04-16T04:35:56;6.30;;;2.75;;
29402;SDS011;16382;59.942;30.472;2023-04-16T04:38:27;4.07;;;2.25;;
29402;SDS011;16382;59.942;30.472;2023-04-16T04:40:56;4.13;;;2.10;;
29402;SDS011;16382;59.942;30.472;2023-04-16T04:43:27;5.18;;;2.95;;
29402;SDS011;16382;59.942;30.472;2023-04-16T04:45:55;4.28;;;2.58;;
29402;SDS011;16382;59.942;30.472;2023-04-16T04:48:27;5.00;;;2.28;;
29402;SDS011;16382;59.942;30.472;2023-04-16T04:50:55;7.90;;;3.08;;
29402;SDS011;16382;59.942;30.472;2023-04-16T04:53:22;6.25;;;2.80;;
29402;SDS011;16382;59.942;30.472;2023-04-16T04:55:50;6.45;;;2.28;;
29402;SDS011;16382;59.942;30.472;2023-04-16T04:58:18;6.55;;;2.58;;
29402;SDS011;16382;59.942;30.472;2023-04-16T05:00:46;7.53;;;2.65;;
29402;SDS011;16382;59.942;30.472;2023-04-16T05:03:17;4.68;;;2.35;;
29402;SDS011;16382;59.942;30.472;2023-04-16T05:05:48;5.28;;;2.53;;
29402;SDS011;16382;59.942;30.472;2023-04-16T05:08:15;9.55;;;2.60;;
29402;SDS011;16382;59.942;30.472;2023-04-16T05:10:47;5.53;;;2.58;;
29402;SDS011;16382;59.942;30.472;2023-04-16T05:13:31;4.90;;;2.63;;
29402;SDS011;16382;59.942;30.472;2023-04-16T05:16:01;5.18;;;3.65;;
29402;SDS011;16382;59.942;30.472;2023-04-16T05:18:29;4.63;;;2.20;;
29402;SDS011;16382;59.942;30.472;2023-04-16T05:20:59;4.60;;;2.30;;
29402;SDS011;16382;59.942;30.472;2023-04-16T05:23:26;10.02;;;2.67;;
29402;SDS011;16382;59.942;30.472;2023-04-16T05:25:54;6.93;;;2.58;;
29402;SDS011;16382;59.942;30.472;2023-04-16T05:28:24;6.30;;;2.90;;
29402;SDS011;16382;59.942;30.472;2023-04-16T05:30:52;3.80;;;2.50;;
29402;SDS011;16382;59.942;30.472;2023-04-16T05:33:19;4.40;;;2.50;;
29402;SDS011;16382;59.942;30.472;2023-04-16T05:35:47;5.80;;;2.60;;
29402;SDS011;16382;59.942;30.472;2023-04-16T05:38:16;7.18;;;2.42;;
29402;SDS011;16382;59.942;30.472;2023-04-16T05:40:43;5.63;;;2.38;;
29402;SDS011;16382;59.942;30.472;2023-04-16T05:43:11;6.25;;;2.38;;
29402;SDS011;16382;59.942;30.472;2023-04-16T05:45:44;7.32;;;3.03;;
29402;SDS011;16382;59.942;30.472;2023-04-16T05:48:12;6.25;;;3.13;;
29402;SDS011;16382;59.942;30.472;2023-04-16T05:50:39;7.13;;;2.33;;
29402;SDS011;16382;59.942;30.472;2023-04-16T05:53:07;4.75;;;2.60;;
29402;SDS011;16382;59.942;30.472;2023-04-16T05:55:39;4.57;;;2.22;;
29402;SDS011;16382;59.942;30.472;2023-04-16T05:58:07;3.50;;;2.30;;
29402;SDS011;16382;59.942;30.472;2023-04-16T06:00:56;5.78;;;3.10;;
29402;SDS011;16382;59.942;30.472;2023-04-16T06:03:32;10.45;;;2.75;;
29402;SDS011;16382;59.942;30.472;2023-04-16T06:06:15;6.00;;;2.90;;
29402;SDS011;16382;59.942;30.472;2023-04-16T06:08:45;5.00;;;2.92;;
29402;SDS011;16382;59.942;30.472;2023-04-16T06:11:14;8.57;;;3.38;;
29402;SDS011;16382;59.942;30.472;2023-04-16T06:13:41;17.13;;;7.70;;
29402;SDS011;16382;59.942;30.472;2023-04-16T06:16:09;8.70;;;3.28;;
29402;SDS011;16382;59.942;30.472;2023-04-16T06:18:39;7.93;;;2.83;;
29402;SDS011;16382;59.942;30.472;2023-04-16T06:21:08;9.15;;;3.25;;
29402;SDS011;16382;59.942;30.472;2023-04-16T06:23:40;5.82;;;2.70;;
29402;SDS011;16382;59.942;30.472;2023-04-16T06:26:07;7.97;;;2.72;;
29402;SDS011;16382;59.942;30.472;2023-04-16T06:28:37;5.78;;;2.63;;
29402;SDS011;16382;59.942;30.472;2023-04-16T06:31:05;11.88;;;3.85;;
29402;SDS011;16382;59.942;30.472;2023-04-16T06:33:33;7.90;;;2.65;;
29402;SDS011;16382;59.942;30.472;2023-04-16T06:36:02;9.40;;;2.95;;
29402;SDS011;16382;59.942;30.472;2023-04-16T06:38:37;11.80;;;2.80;;
29402;SDS011;16382;59.942;30.472;2023-04-16T06:41:07;6.63;;;3.17;;
29402;SDS011;16382;59.942;30.472;2023-04-16T06:43:41;5.13;;;2.70;;
29402;SDS011;16382;59.942;30.472;2023-04-16T06:46:16;6.63;;;2.85;;
29402;SDS011;16382;59.942;30.472;2023-04-16T06:48:57;5.90;;;2.72;;
29402;SDS011;16382;59.942;30.472;2023-04-16T06:51:28;11.23;;;3.60;;
29402;SDS011;16382;59.942;30.472;2023-04-16T06:53:55;10.90;;;3.15;;
29402;SDS011;16382;59.942;30.472;2023-04-16T06:56:25;5.85;;;2.80;;
29402;SDS011;16382;59.942;30.472;2023-04-16T06:58:54;4.38;;;2.90;;
29402;SDS011;16382;59.942;30.472;2023-04-16T07:01:23;10.90;;;2.92;;
29402;SDS011;16382;59.942;30.472;2023-04-16T07:03:50;18.42;;;2.92;;
29402;SDS011;16382;59.942;30.472;2023-04-16T07:06:18;5.80;;;3.05;;
29402;SDS011;16382;59.942;30.472;2023-04-16T07:08:46;9.35;;;2.63;;
29402;SDS011;16382;59.942;30.472;2023-04-16T07:11:14;4.03;;;3.20;;
29402;SDS011;16382;59.942;30.472;2023-04-16T07:13:43;9.65;;;3.28;;
29402;SDS011;16382;59.942;30.472;2023-04-16T07:16:12;14.48;;;3.72;;
29402;SDS011;16382;59.942;30.472;2023-04-16T07:18:40;9.90;;;2.92;;
29402;SDS011;16382;59.942;30.472;2023-04-16T07:21:08;5.82;;;2.90;;
29402;SDS011;16382;59.942;30.472;2023-04-16T07:23:37;5.88;;;2.88;;
29402;SDS011;16382;59.942;30.472;2023-04-16T07:26:05;10.55;;;2.75;;
29402;SDS011;16382;59.942;30.472;2023-04-16T07:28:33;6.85;;;3.13;;
29402;SDS011;16382;59.942;30.472;2023-04-16T07:31:03;8.13;;;3.53;;
29402;SDS011;16382;59.942;30.472;2023-04-16T07:33:33;6.63;;;3.50;;
29402;SDS011;16382;59.942;30.472;2023-04-16T07:36:02;6.22;;;3.20;;
29402;SDS011;16382;59.942;30.472;2023-04-16T07:38:30;10.05;;;3.33;;
29402;SDS011;16382;59.942;30.472;2023-04-16T07:40:59;8.57;;;3.20;;
29402;SDS011;16382;59.942;30.472;2023-04-16T07:43:26;3.58;;;3.28;;
29402;SDS011;16382;59.942;30.472;2023-04-16T07:45:54;7.20;;;3.65;;
29402;SDS011;16382;59.942;30.472;2023-04-16T07:48:21;7.43;;;3.95;;
29402;SDS011;16382;59.942;30.472;2023-04-16T07:50:51;10.52;;;3.70;;
29402;SDS011;16382;59.942;30.472;2023-04-16T07:53:18;6.95;;;3.47;;
29402;SDS011;16382;59.942;30.472;2023-04-16T07:55:45;7.45;;;3.55;;
29402;SDS011;16382;59.942;30.472;2023-04-16T07:58:13;8.50;;;3.40;;
29402;SDS011;16382;59.942;30.472;2023-04-16T08:00:40;8.15;;;3.67;;
29402;SDS011;16382;59.942;30.472;2023-04-16T08:03:10;6.03;;;3.25;;
29402;SDS011;16382;59.942;30.472;2023-04-16T08:05:37;7.70;;;3.40;;
29402;SDS011;16382;59.942;30.472;2023-04-16T08:08:09;6.28;;;3.13;;
29402;SDS011;16382;59.942;30.472;2023-04-16T08:10:38;9.40;;;3.22;;
29402;SDS011;16382;59.942;30.472;2023-04-16T08:13:06;6.43;;;3.08;;
29402;SDS011;16382;59.942;30.472;2023-04-16T08:15:33;7.95;;;3.42;;
29402;SDS011;16382;59.942;30.472;2023-04-16T08:18:01;6.10;;;3.30;;
29402;SDS011;16382;59.942;30.472;2023-04-16T08:20:30;7.47;;;3.65;;
29402;SDS011;16382;59.942;30.472;2023-04-16T08:22:58;10.05;;;3.70;;
29402;SDS011;16382;59.942;30.472;2023-04-16T08:25:29;7.53;;;3.70;;
29402;SDS011;16382;59.942;30.472;2023-04-16T08:27:57;9.88;;;4.30;;
29402;SDS011;16382;59.942;30.472;2023-04-16T08:30:27;6.10;;;4.32;;
29402;SDS011;16382;59.942;30.472;2023-04-16T08:32:55;14.77;;;4.50;;
29402;SDS011;16382;59.942;30.472;2023-04-16T08:35:23;9.23;;;4.43;;
29402;SDS011;16382;59.942;30.472;2023-04-16T08:37:50;9.43;;;4.20;;
29402;SDS011;16382;59.942;30.472;2023-04-16T08:40:18;13.18;;;4.38;;
29402;SDS011;16382;59.942;30.472;2023-04-16T08:42:52;13.50;;;4.80;;
29402;SDS011;16382;59.942;30.472;2023-04-16T08:45:21;6.40;;;5.18;;
29402;SDS011;16382;59.942;30.472;2023-04-16T08:47:50;7.70;;;4.55;;
29402;SDS011;16382;59.942;30.472;2023-04-16T08:50:21;11.88;;;4.55;;
29402;SDS011;16382;59.942;30.472;2023-04-16T08:52:51;12.43;;;5.50;;
29402;SDS011;16382;59.942;30.472;2023-04-16T08:55:24;7.30;;;5.30;;
29402;SDS011;16382;59.942;30.472;2023-04-16T08:57:59;7.80;;;5.18;;
29402;SDS011;16382;59.942;30.472;2023-04-16T09:00:30;7.43;;;5.22;;
29402;SDS011;16382;59.942;30.472;2023-04-16T09:02:59;15.00;;;6.00;;
29402;SDS011;16382;59.942;30.472;2023-04-16T09:05:28;8.48;;;5.47;;
29402;SDS011;16382;59.942;30.472;2023-04-16T09:07:56;7.35;;;5.30;;
29402;SDS011;16382;59.942;30.472;2023-04-16T09:10:24;8.02;;;5.60;;
29402;SDS011;16382;59.942;30.472;2023-04-16T09:12:54;8.80;;;5.60;;
29402;SDS011;16382;59.942;30.472;2023-04-16T09:15:24;14.70;;;6.88;;
29402;SDS011;16382;59.942;30.472;2023-04-16T09:17:52;7.60;;;6.70;;
29402;SDS011;16382;59.942;30.472;2023-04-16T09:20:22;15.18;;;7.22;;
29402;SDS011;16382;59.942;30.472;2023-04-16T09:22:50;11.27;;;6.90;;
29402;SDS011;16382;59.942;30.472;2023-04-16T09:25:18;16.00;;;9.52;;
29402;SDS011;16382;59.942;30.472;2023-04-16T09:27:48;8.50;;;6.03;;
29402;SDS011;16382;59.942;30.472;2023-04-16T09:30:20;11.07;;;5.82;;
29402;SDS011;16382;59.942;30.472;2023-04-16T09:35:18;7.07;;;5.95;;
29402;SDS011;16382;59.942;30.472;2023-04-16T09:37:56;10.80;;;6.35;;
29402;SDS011;16382;59.942;30.472;2023-04-16T09:40:24;8.32;;;6.18;;
29402;SDS011;16382;59.942;30.472;2023-04-16T09:42:58;8.38;;;5.78;;
29402;SDS011;16382;59.942;30.472;2023-04-16T09:45:29;8.25;;;6.40;;
29402;SDS011;16382;59.942;30.472;2023-04-16T09:48:03;6.85;;;5.22;;
29402;SDS011;16382;59.942;30.472;2023-04-16T09:50:31;8.63;;;5.40;;
29402;SDS011;16382;59.942;30.472;2023-04-16T09:53:02;12.98;;;5.57;;
29402;SDS011;16382;59.942;30.472;2023-04-16T09:55:30;7.88;;;5.32;;
29402;SDS011;16382;59.942;30.472;2023-04-16T09:57:59;12.15;;;6.60;;
29402;SDS011;16382;59.942;30.472;2023-04-16T10:00:28;8.50;;;5.50;;
29402;SDS011;16382;59.942;30.472;2023-04-16T10:03:04;15.98;;;6.30;;
29402;SDS011;16382;59.942;30.472;2023-04-16T10:05:32;10.85;;;7.35;;
29402;SDS011;16382;59.942;30.472;2023-04-16T10:10:47;10.27;;;5.95;;
29402;SDS011;16382;59.942;30.472;2023-04-16T10:13:16;10.43;;;6.70;;
29402;SDS011;16382;59.942;30.472;2023-04-16T10:15:44;9.70;;;6.57;;
29402;SDS011;16382;59.942;30.472;2023-04-16T10:18:13;8.27;;;6.82;;
29402;SDS011;16382;59.942;30.472;2023-04-16T10:20:43;10.13;;;6.70;;
29402;SDS011;16382;59.942;30.472;2023-04-16T10:23:12;10.85;;;7.10;;
29402;SDS011;16382;59.942;30.472;2023-04-16T10:25:57;12.63;;;7.75;;
29402;SDS011;16382;59.942;30.472;2023-04-16T10:28:28;10.13;;;7.35;;
29402;SDS011;16382;59.942;30.472;2023-04-16T10:31:00;15.93;;;7.53;;
29402;SDS011;16382;59.942;30.472;2023-04-16T10:33:32;13.75;;;7.30;;
29402;SDS011;16382;59.942;30.472;2023-04-16T10:36:08;12.52;;;7.82;;
29402;SDS011;16382;59.942;30.472;2023-04-16T10:38:40;9.07;;;6.70;;
29402;SDS011;16382;59.942;30.472;2023-04-16T10:41:14;9.50;;;7.13;;
29402;SDS011;16382;59.942;30.472;2023-04-16T10:43:42;11.90;;;6.68;;
29402;SDS011;16382;59.942;30.472;2023-04-16T10:46:16;9.98;;;6.82;;
29402;SDS011;16382;59.942;30.472;2023-04-16T10:48:51;12.55;;;7.30;;
29402;SDS011;16382;59.942;30.472;2023-04-16T10:51:28;8.98;;;6.55;;
29402;SDS011;16382;59.942;30.472;2023-04-16T10:54:01;14.30;;;7.15;;
29402;SDS011;16382;59.942;30.472;2023-04-16T10:56:31;12.20;;;6.60;;
29402;SDS011;16382;59.942;30.472;2023-04-16T10:59:03;12.82;;;6.85;;
29402;SDS011;16382;59.942;30.472;2023-04-16T11:01:31;18.65;;;6.88;;
29402;SDS011;16382;59.942;30.472;2023-04-16T11:09:55;16.48;;;7.82;;
29402;SDS011;16382;59.942;30.472;2023-04-16T11:12:25;11.57;;;6.85;;
29402;SDS011;16382;59.942;30.472;2023-04-16T11:15:02;9.52;;;7.07;;
29402;SDS011;16382;59.942;30.472;2023-04-16T11:17:36;11.30;;;7.07;;
29402;SDS011;16382;59.942;30.472;2023-04-16T11:20:15;11.77;;;7.10;;
29402;SDS011;16382;59.942;30.472;2023-04-16T11:22:44;16.33;;;6.32;;
29402;SDS011;16382;59.942;30.472;2023-04-16T11:25:14;10.68;;;6.63;;
29402;SDS011;16382;59.942;30.472;2023-04-16T11:27:46;12.27;;;6.50;;
29402;SDS011;16382;59.942;30.472;2023-04-16T11:30:13;13.60;;;6.38;;
29402;SDS011;16382;59.942;30.472;2023-04-16T11:32:42;11.27;;;7.53;;
29402;SDS011;16382;59.942;30.472;2023-04-16T11:35:12;11.32;;;7.72;;
29402;SDS011;16382;59.942;30.472;2023-04-16T11:37:43;12.90;;;7.15;;
29402;SDS011;16382;59.942;30.472;2023-04-16T11:40:12;11.77;;;7.30;;
29402;SDS011;16382;59.942;30.472;2023-04-16T11:42:41;15.45;;;7.25;;
29402;SDS011;16382;59.942;30.472;2023-04-16T11:45:12;9.13;;;6.68;;
29402;SDS011;16382;59.942;30.472;2023-04-16T11:47:43;12.85;;;6.90;;
29402;SDS011;16382;59.942;30.472;2023-04-16T11:50:18;8.68;;;7.15;;
29402;SDS011;16382;59.942;30.472;2023-04-16T11:52:48;14.70;;;7.20;;
29402;SDS011;16382;59.942;30.472;2023-04-16T11:55:18;9.07;;;7.30;;
29402;SDS011;16382;59.942;30.472;2023-04-16T11:57:46;8.73;;;6.93;;
29402;SDS011;16382;59.942;30.472;2023-04-16T12:00:15;17.02;;;7.53;;
29402;SDS011;16382;59.942;30.472;2023-04-16T12:02:43;9.35;;;6.60;;
29402;SDS011;16382;59.942;30.472;2023-04-16T12:05:28;10.68;;;7.50;;
29402;SDS011;16382;59.942;30.472;2023-04-16T12:07:59;14.07;;;7.07;;
29402;SDS011;16382;59.942;30.472;2023-04-16T12:10:29;11.20;;;6.68;;
29402;SDS011;16382;59.942;30.472;2023-04-16T12:13:09;13.45;;;6.65;;
29402;SDS011;16382;59.942;30.472;2023-04-16T12:15:44;14.75;;;7.15;;
29402;SDS011;16382;59.942;30.472;2023-04-16T12:18:13;15.85;;;8.30;;
29402;SDS011;16382;59.942;30.472;2023-04-16T12:23:33;14.50;;;6.45;;
29402;SDS011;16382;59.942;30.472;2023-04-16T12:26:05;14.55;;;7.20;;
29402;SDS011;16382;59.942;30.472;2023-04-16T12:28:36;10.15;;;7.22;;
29402;SDS011;16382;59.942;30.472;2023-04-16T12:31:05;10.18;;;7.22;;
29402;SDS011;16382;59.942;30.472;2023-04-16T12:33:35;18.25;;;7.90;;
29402;SDS011;16382;59.942;30.472;2023-04-16T12:36:17;17.70;;;7.32;;
29402;SDS011;16382;59.942;30.472;2023-04-16T12:38:45;12.82;;;7.00;;
29402;SDS011;16382;59.942;30.472;2023-04-16T12:41:25;10.73;;;8.00;;
29402;SDS011;16382;59.942;30.472;2023-04-16T12:44:00;10.27;;;7.35;;
29402;SDS011;16382;59.942;30.472;2023-04-16T12:46:31;17.15;;;7.47;;
29402;SDS011;16382;59.942;30.472;2023-04-16T12:49:01;12.30;;;6.65;;
29402;SDS011;16382;59.942;30.472;2023-04-16T12:51:31;14.05;;;6.93;;
29402;SDS011;16382;59.942;30.472;2023-04-16T12:54:00;13.63;;;7.20;;
29402;SDS011;16382;59.942;30.472;2023-04-16T12:56:28;9.90;;;6.07;;
29402;SDS011;16382;59.942;30.472;2023-04-16T12:58:57;10.27;;;6.45;;
29402;SDS011;16382;59.942;30.472;2023-04-16T13:01:27;12.48;;;6.40;;
29402;SDS011;16382;59.942;30.472;2023-04-16T13:03:55;12.27;;;7.78;;
29402;SDS011;16382;59.942;30.472;2023-04-16T13:06:26;10.45;;;6.60;;
29402;SDS011;16382;59.942;30.472;2023-04-16T13:08:55;14.00;;;6.43;;
29402;SDS011;16382;59.942;30.472;2023-04-16T13:11:23;10.40;;;6.30;;
29402;SDS011;16382;59.942;30.472;2023-04-16T13:13:50;10.82;;;6.25;;
29402;SDS011;16382;59.942;30.472;2023-04-16T13:16:18;11.93;;;6.20;;
29402;SDS011;16382;59.942;30.472;2023-04-16T13:18:47;15.57;;;6.15;;
29402;SDS011;16382;59.942;30.472;2023-04-16T13:21:14;8.43;;;5.75;;
29402;SDS011;16382;59.942;30.472;2023-04-16T13:23:44;10.95;;;6.03;;
29402;SDS011;16382;59.942;30.472;2023-04-16T13:26:13;13.70;;;6.78;;
29402;SDS011;16382;59.942;30.472;2023-04-16T13:28:41;14.75;;;5.45;;
29402;SDS011;16382;59.942;30.472;2023-04-16T13:31:09;10.30;;;6.53;;
29402;SDS011;16382;59.942;30.472;2023-04-16T13:33:36;12.10;;;6.13;;
29402;SDS011;16382;59.942;30.472;2023-04-16T13:36:05;12.43;;;6.72;;
29402;SDS011;16382;59.942;30.472;2023-04-16T13:38:33;11.55;;;6.78;;
29402;SDS011;16382;59.942;30.472;2023-04-16T13:41:00;11.75;;;6.72;;
29402;SDS011;16382;59.942;30.472;2023-04-16T13:43:30;9.73;;;6.30;;
29402;SDS011;16382;59.942;30.472;2023-04-16T13:45:58;14.70;;;6.68;;
29402;SDS011;16382;59.942;30.472;2023-04-16T13:48:26;10.63;;;7.15;;
29402;SDS011;16382;59.942;30.472;2023-04-16T13:50:54;9.35;;;5.95;;
29402;SDS011;16382;59.942;30.472;2023-04-16T13:53:22;10.13;;;6.20;;
29402;SDS011;16382;59.942;30.472;2023-04-16T13:55:49;12.90;;;7.03;;
29402;SDS011;16382;59.942;30.472;2023-04-16T13:58:17;10.98;;;6.80;;
29402;SDS011;16382;59.942;30.472;2023-04-16T14:00:47;11.82;;;6.25;;
29402;SDS011;16382;59.942;30.472;2023-04-16T14:03:15;17.10;;;6.70;;
29402;SDS011;16382;59.942;30.472;2023-04-16T14:05:43;9.57;;;6.97;;
29402;SDS011;16382;59.942;30.472;2023-04-16T14:08:12;11.15;;;6.05;;
29402;SDS011;16382;59.942;30.472;2023-04-16T14:10:41;13.65;;;6.75;;
29402;SDS011;16382;59.942;30.472;2023-04-16T14:13:09;12.38;;;6.60;;
29402;SDS011;16382;59.942;30.472;2023-04-16T14:15:36;14.85;;;7.32;;
29402;SDS011;16382;59.942;30.472;2023-04-16T14:18:08;14.35;;;6.07;;
29402;SDS011;16382;59.942;30.472;2023-04-16T14:20:36;20.95;;;6.53;;
29402;SDS011;16382;59.942;30.472;2023-04-16T14:23:04;11.02;;;6.88;;
29402;SDS011;16382;59.942;30.472;2023-04-16T14:25:32;10.45;;;6.88;;
29402;SDS011;16382;59.942;30.472;2023-04-16T14:27:59;14.13;;;6.72;;
29402;SDS011;16382;59.942;30.472;2023-04-16T14:30:27;9.65;;;7.00;;
29402;SDS011;16382;59.942;30.472;2023-04-16T14:32:55;14.65;;;6.15;;
29402;SDS011;16382;59.942;30.472;2023-04-16T14:35:24;11.93;;;6.22;;
29402;SDS011;16382;59.942;30.472;2023-04-16T14:37:55;9.73;;;6.13;;
29402;SDS011;16382;59.942;30.472;2023-04-16T14:40:23;8.43;;;5.93;;
29402;SDS011;16382;59.942;30.472;2023-04-16T14:42:50;12.27;;;6.53;;
29402;SDS011;16382;59.942;30.472;2023-04-16T14:45:18;15.30;;;6.65;;
29402;SDS011;16382;59.942;30.472;2023-04-16T14:47:46;14.32;;;7.20;;
29402;SDS011;16382;59.942;30.472;2023-04-16T14:50:15;11.18;;;6.88;;
29402;SDS011;16382;59.942;30.472;2023-04-16T14:52:50;10.57;;;6.82;;
29402;SDS011;16382;59.942;30.472;2023-04-16T14:55:19;12.13;;;6.22;;
29402;SDS011;16382;59.942;30.472;2023-04-16T14:57:46;11.25;;;6.72;;